Time;durP1;ratioP1;P1;durP2;ratioP2;P2;SDS_P1;SDS_P2;PMS_P1;PMS_P2;Temp;Humidity;BMP_temperature;BMP_pressure;BME280_temperature;BME280_humidity;BME280_pressure;Samples;Min_cycle;Max_cycle;Signal;HPM_P1;HPM_P2
2022/04/18 00:01:14;;;;;;;;;2.00;1.00;;;;;14.17;32.33;100944.41;5075211;27;45635;-76
2022/04/18 00:03:40;;;;;;;;;0.00;0.00;;;;;14.20;32.26;100957.63;5072247;27;45520;-75
2022/04/18 00:06:05;;;;;;;;;1.00;1.00;;;;;14.18;32.41;100954.13;5078683;27;45677;-76
2022/04/18 00:08:31;;;;;;;;;0.00;0.00;;;;;14.13;32.16;100951.59;5075042;28;45402;-75
2022/04/18 00:10:56;;;;;;;;;0.50;0.50;;;;;14.11;32.42;100941.94;5082088;27;45458;-77
2022/04/18 00:13:21;;;;;;;;;0.25;0.25;;;;;14.11;32.36;100947.25;5098251;27;45419;-75
2022/04/18 00:15:47;;;;;;;;;0.25;0.25;;;;;14.00;32.50;100935.16;5095438;27;45470;-77
2022/04/18 00:18:12;;;;;;;;;1.00;1.00;;;;;14.02;32.17;100938.63;5095721;27;45488;-75
2022/04/18 00:20:37;;;;;;;;;0.00;0.00;;;;;13.94;32.71;100935.31;5095917;27;45407;-77
2022/04/18 00:23:03;;;;;;;;;1.00;0.00;;;;;13.97;32.38;100942.34;5095316;27;45573;-77
2022/04/18 00:25:28;;;;;;;;;2.50;0.00;;;;;13.97;32.59;100945.84;5095014;27;45443;-76
2022/04/18 00:27:53;;;;;;;;;0.00;0.00;;;;;13.93;32.82;100936.22;5095958;27;45449;-77
2022/04/18 00:30:19;;;;;;;;;0.00;0.00;;;;;13.92;32.78;100933.59;5109494;27;45406;-77
2022/04/18 00:32:44;;;;;;;;;3.75;0.25;;;;;13.87;32.62;100920.47;5115715;27;45409;-76
2022/04/18 00:35:10;;;;;;;;;0.00;0.00;;;;;13.88;32.58;100930.19;5116242;27;45634;-76
2022/04/18 00:37:39;;;;;;;;;1.00;1.00;;;;;13.84;32.19;100939.13;5116766;27;45515;-76
2022/04/18 00:40:06;;;;;;;;;0.75;0.00;;;;;13.82;32.37;100927.69;5097086;27;45435;-76
2022/04/18 00:42:32;;;;;;;;;0.00;0.00;;;;;13.80;32.44;100927.75;5099733;27;45583;-76
2022/04/18 00:44:57;;;;;;;;;0.25;0.25;;;;;13.79;32.08;100933.09;5109435;27;45818;-75
2022/04/18 00:47:22;;;;;;;;;0.00;0.00;;;;;13.74;32.31;100919.94;5094768;27;45352;-75
2022/04/18 00:49:48;;;;;;;;;3.00;1.25;;;;;13.70;32.32;100907.66;5095289;27;45650;-75
2022/04/18 00:52:13;;;;;;;;;0.00;0.00;;;;;13.70;32.16;100907.66;5095138;27;45315;-76
2022/04/18 00:54:41;;;;;;;;;0.00;0.00;;;;;13.73;31.82;100914.66;5093996;27;45801;-75
2022/04/18 00:57:07;;;;;;;;;0.00;0.00;;;;;13.68;32.36;100910.34;5095208;27;45437;-76
2022/04/18 00:59:33;;;;;;;;;0.00;0.00;;;;;13.68;31.84;100918.31;5095201;27;45473;-75
2022/04/18 01:01:58;;;;;;;;;1.00;0.00;;;;;13.62;32.40;100910.53;5094885;27;45557;-76
2022/04/18 01:04:23;;;;;;;;;0.00;0.00;;;;;13.65;32.25;100917.53;5104019;27;45501;-76
2022/04/18 01:06:49;;;;;;;;;2.00;0.25;;;;;13.63;32.07;100908.72;5114845;27;45509;-77
2022/04/18 01:09:15;;;;;;;;;0.00;0.00;;;;;13.61;32.02;100911.41;5098400;27;45580;-75
2022/04/18 01:11:40;;;;;;;;;0.00;0.00;;;;;13.62;32.50;100912.28;5096744;27;45421;-76
2022/04/18 01:14:06;;;;;;;;;1.75;0.00;;;;;13.58;32.27;100906.19;5107739;27;45457;-76
2022/04/18 01:16:31;;;;;;;;;0.00;0.00;;;;;13.54;32.36;100909.84;5112054;27;45429;-76
2022/04/18 01:18:57;;;;;;;;;1.00;0.00;;;;;13.53;32.37;100907.22;5098841;27;45902;-75
2022/04/18 01:21:23;;;;;;;;;0.00;0.00;;;;;13.50;32.72;100900.22;5098780;27;45377;-76
2022/04/18 01:23:49;;;;;;;;;0.75;0.75;;;;;13.42;33.05;100888.94;5103795;27;45488;-76
2022/04/18 01:28:59;;;;;;;;;0.00;0.00;;;;;13.44;32.83;100908.38;5118301;27;45365;-76
2022/04/18 01:31:35;;;;;;;;;0.00;0.00;;;;;13.36;33.05;100890.00;5119082;27;45456;-76
2022/04/18 01:34:03;;;;;;;;;3.00;3.00;;;;;13.35;32.96;100901.50;5106271;27;45962;-76
2022/04/18 01:36:28;;;;;;;;;1.00;0.00;;;;;13.27;33.52;100888.41;5096833;27;45432;-77
2022/04/18 01:38:54;;;;;;;;;0.00;0.00;;;;;13.23;33.29;100889.38;5097380;27;45423;-76
2022/04/18 01:41:20;;;;;;;;;1.00;0.00;;;;;13.21;33.13;100890.31;5100385;27;45360;-76
2022/04/18 01:43:46;;;;;;;;;0.00;0.00;;;;;13.20;33.41;100899.22;5101129;27;45488;-74
2022/04/18 01:46:13;;;;;;;;;0.50;0.50;;;;;13.16;33.68;100893.09;5097546;27;45637;-75
2022/04/18 01:48:38;;;;;;;;;0.00;0.00;;;;;13.08;33.61;100893.31;5097938;27;45409;-75
2022/04/18 01:51:03;;;;;;;;;0.50;0.50;;;;;13.08;33.71;100892.44;5099401;27;45611;-76
2022/04/18 01:53:30;;;;;;;;;0.00;0.00;;;;;13.04;33.71;100893.41;5118204;27;46036;-75
2022/04/18 01:55:56;;;;;;;;;3.00;3.00;;;;;12.99;34.03;100888.22;5119222;27;45571;-76
2022/04/18 01:58:21;;;;;;;;;1.50;1.50;;;;;12.93;34.03;100889.25;5104075;27;45445;-76
2022/04/18 02:00:47;;;;;;;;;1.00;0.00;;;;;12.89;34.24;100882.28;5097786;27;45349;-76
2022/04/18 02:03:12;;;;;;;;;3.00;3.00;;;;;12.88;34.21;100883.19;5097224;27;45458;-76
2022/04/18 02:05:37;;;;;;;;;0.00;0.00;;;;;12.83;34.23;100885.09;5098214;27;45575;-76
2022/04/18 02:08:03;;;;;;;;;0.00;0.00;;;;;12.76;34.25;100870.25;5099287;27;45437;-77
2022/04/18 02:10:28;;;;;;;;;3.00;0.00;;;;;12.72;34.54;100880.06;5099123;27;45635;-76
2022/04/18 02:12:54;;;;;;;;;1.00;0.00;;;;;12.71;34.58;100874.78;5097912;27;45508;-75
2022/04/18 02:15:21;;;;;;;;;0.00;0.00;;;;;12.65;34.63;100866.94;5097690;27;45373;-76
2022/04/18 02:17:46;;;;;;;;;1.00;1.00;;;;;12.62;34.67;100867.94;5092371;27;45392;-75
2022/04/18 02:20:12;;;;;;;;;0.00;0.00;;;;;12.57;34.98;100873.34;5105768;27;45403;-76
2022/04/18 02:22:37;;;;;;;;;1.50;1.50;;;;;12.58;34.74;100874.19;5118148;27;45357;-76
2022/04/18 02:25:03;;;;;;;;;0.25;0.25;;;;;12.57;34.65;100872.44;5112345;27;45388;-75
2022/04/18 02:27:28;;;;;;;;;0.75;0.75;;;;;12.56;34.82;100866.28;5076516;27;45366;-75
2022/04/18 02:29:53;;;;;;;;;0.00;0.00;;;;;12.54;34.99;100873.41;5092151;27;45393;-76
2022/04/18 02:35:03;;;;;;;;;0.75;0.00;;;;;12.43;35.04;100860.41;5098255;27;45389;-76
2022/04/18 02:37:28;;;;;;;;;0.00;0.00;;;;;12.44;35.09;100866.56;5097358;27;45388;-76
2022/04/18 02:39:54;;;;;;;;;0.75;0.75;;;;;12.37;35.07;100857.00;5097682;27;45433;-76
2022/04/18 02:42:20;;;;;;;;;3.00;2.00;;;;;12.32;35.53;100850.94;5100150;27;45400;-76
2022/04/18 02:44:48;;;;;;;;;0.00;0.00;;;;;12.31;35.16;100849.19;5099080;27;45315;-76
2022/04/18 02:47:14;;;;;;;;;3.00;0.25;;;;;12.26;35.48;100852.81;5097422;27;45386;-75
2022/04/18 02:49:39;;;;;;;;;0.00;0.00;;;;;12.26;35.88;100851.97;5096923;27;45479;-75
2022/04/18 02:52:04;;;;;;;;;1.00;1.00;;;;;12.21;35.64;100848.56;5096477;27;46373;-76
2022/04/18 02:54:30;;;;;;;;;0.00;0.00;;;;;12.20;35.55;100858.25;5097431;27;45553;-75
2022/04/18 02:56:56;;;;;;;;;3.00;3.00;;;;;12.19;35.77;100861.84;5096259;27;45408;-77
2022/04/18 02:59:21;;;;;;;;;0.00;0.00;;;;;12.13;36.06;100858.44;5096439;27;45415;-74
2022/04/18 03:01:46;;;;;;;;;3.25;3.25;;;;;12.09;35.95;100861.16;5108171;27;45634;-76
2022/04/18 03:04:13;;;;;;;;;0.00;0.00;;;;;12.09;35.81;100863.78;5096913;27;45439;-76
2022/04/18 03:06:39;;;;;;;;;0.00;0.00;;;;;12.05;35.49;100864.75;5096867;27;45500;-76
2022/04/18 03:09:04;;;;;;;;;0.75;0.75;;;;;11.98;36.12;100856.97;5101475;27;45329;-74
2022/04/18 03:11:30;;;;;;;;;0.00;0.00;;;;;11.97;36.16;100863.19;5118915;27;45500;-75
2022/04/18 03:13:56;;;;;;;;;3.25;3.25;;;;;11.96;36.20;100861.44;5122825;27;45367;-76
2022/04/18 03:16:21;;;;;;;;;0.00;0.00;;;;;11.91;36.45;100856.22;5099734;27;45373;-76
2022/04/18 03:18:47;;;;;;;;;1.50;1.50;;;;;11.86;36.49;100850.16;5096243;27;45314;-77
2022/04/18 03:21:13;;;;;;;;;1.00;1.00;;;;;11.87;36.25;100854.53;5096319;27;45456;-76
2022/04/18 03:23:39;;;;;;;;;3.00;0.00;;;;;11.85;36.75;100861.63;5096896;27;45452;-74
2022/04/18 03:26:06;;;;;;;;;3.75;3.75;;;;;11.82;36.69;100854.63;5098055;27;45404;-76
2022/04/18 03:28:32;;;;;;;;;3.00;0.50;;;;;11.77;36.37;100848.56;5095897;27;45497;-76
2022/04/18 03:30:58;;;;;;;;;1.00;1.00;;;;;11.77;36.82;100848.56;5077744;28;45553;-75
2022/04/18 03:33:23;;;;;;;;;0.00;0.00;;;;;11.73;36.61;100853.03;5076225;28;45465;-75
2022/04/18 03:41:24;;;;;;;;;1.00;0.00;;;;;11.62;36.79;100840.94;4995651;28;45512;-75
2022/04/18 03:43:51;;;;;;;;;0.75;0.75;;;;;11.62;37.23;100843.59;4996980;28;45441;-75
2022/04/18 03:46:17;;;;;;;;;2.50;2.50;;;;;11.58;37.46;100848.03;4980921;28;45489;-76
2022/04/18 03:48:42;;;;;;;;;0.00;0.00;;;;;11.56;37.56;100834.84;4973889;28;45660;-76
2022/04/18 03:51:08;;;;;;;;;1.00;0.00;;;;;11.56;37.66;100841.91;4973753;28;46144;-76
2022/04/18 03:53:33;;;;;;;;;1.00;1.00;;;;;11.54;38.01;100841.09;4980909;28;45481;-75
2022/04/18 03:55:59;;;;;;;;;4.00;2.50;;;;;11.49;38.21;100837.63;4993138;28;45525;-76
2022/04/18 03:58:25;;;;;;;;;0.00;0.00;;;;;11.50;37.70;100844.69;4993904;28;45655;-74
2022/04/18 04:00:50;;;;;;;;;3.50;3.50;;;;;11.42;37.72;100828.06;4990045;28;45829;-75
2022/04/18 04:03:16;;;;;;;;;0.50;0.00;;;;;11.46;37.81;100848.28;4963799;28;45335;-76
2022/04/18 04:05:41;;;;;;;;;3.00;1.00;;;;;11.46;38.05;100853.59;4982858;28;45410;-77
2022/04/18 04:08:07;;;;;;;;;2.50;0.50;;;;;11.45;38.21;100851.81;4980125;28;45652;-75
2022/04/18 04:10:33;;;;;;;;;1.00;1.00;;;;;11.40;38.21;100840.47;4989959;28;46215;-75
2022/04/18 04:12:58;;;;;;;;;0.00;0.00;;;;;11.35;38.20;100840.56;4997207;28;45496;-77
2022/04/18 04:15:24;;;;;;;;;1.00;1.00;;;;;11.31;37.84;100841.50;4996969;28;45447;-76
2022/04/18 04:17:50;;;;;;;;;0.00;0.00;;;;;11.30;38.04;100837.13;4995869;28;45580;-75
2022/04/18 04:20:16;;;;;;;;;0.00;0.00;;;;;11.27;38.25;100826.63;5055545;28;45521;-76
2022/04/18 04:22:47;;;;;;;;;1.00;1.00;;;;;11.25;38.31;100839.88;5054133;28;45587;-74
2022/04/18 04:25:12;;;;;;;;;0.00;0.00;;;;;11.19;38.27;100834.69;5055648;28;45427;-75
2022/04/18 04:27:38;;;;;;;;;0.00;0.00;;;;;11.15;38.63;100839.16;5059291;28;45352;-76
2022/04/18 04:30:04;;;;;;;;;2.50;2.50;;;;;11.11;38.59;100836.59;5075099;27;45495;-74
2022/04/18 04:32:29;;;;;;;;;2.50;0.00;;;;;11.06;38.48;100834.03;5086226;27;45543;-76
2022/04/18 04:34:54;;;;;;;;;1.00;1.00;;;;;11.10;38.81;100841.03;5094684;27;45490;-76
2022/04/18 04:37:20;;;;;;;;;0.00;0.00;;;;;11.03;38.48;100834.09;5095107;27;45438;-75
2022/04/18 04:39:45;;;;;;;;;5.50;5.50;;;;;10.99;38.56;100830.63;5095241;27;46118;-75
2022/04/18 04:42:10;;;;;;;;;0.50;0.50;;;;;11.02;38.82;100837.63;5096887;27;45538;-75
2022/04/18 04:44:36;;;;;;;;;1.50;1.50;;;;;11.02;38.45;100850.84;5096519;27;45476;-76
2022/04/18 04:47:01;;;;;;;;;0.00;0.00;;;;;10.97;38.64;100839.47;5098010;27;45526;-75
2022/04/18 04:49:27;;;;;;;;;0.50;0.50;;;;;10.95;38.75;100836.88;5096122;27;45602;-75
2022/04/18 04:51:52;;;;;;;;;3.00;3.00;;;;;10.97;38.91;100844.78;5098880;27;45616;-76
2022/04/18 04:54:17;;;;;;;;;3.00;0.25;;;;;10.93;39.37;100836.03;5098394;27;45820;-75
2022/04/18 04:56:43;;;;;;;;;1.00;1.00;;;;;10.92;38.66;100841.34;5098025;27;45572;-75
2022/04/18 04:59:08;;;;;;;;;2.00;2.00;;;;;10.95;38.87;100841.28;5112808;27;46015;-76
2022/04/18 05:01:34;;;;;;;;;0.00;0.00;;;;;11.02;38.73;100837.63;5111787;27;45426;-77
2022/04/18 05:03:59;;;;;;;;;3.00;3.00;;;;;11.35;38.61;100848.50;5098971;27;45373;-75
2022/04/18 05:06:24;;;;;;;;;0.75;0.00;;;;;11.60;37.86;100834.78;5099865;27;45364;-76
2022/04/18 05:08:50;;;;;;;;;0.75;0.00;;;;;11.69;37.88;100824.88;5099047;27;46079;-75
2022/04/18 05:11:15;;;;;;;;;0.75;0.75;;;;;11.80;38.16;100843.19;5099633;27;45463;-74
2022/04/18 05:13:41;;;;;;;;;1.00;1.00;;;;;11.79;38.10;100841.44;5103594;27;45386;-76
2022/04/18 05:16:06;;;;;;;;;5.50;3.00;;;;;11.70;38.04;100841.63;5100587;27;45476;-75
2022/04/18 05:18:32;;;;;;;;;3.00;3.00;;;;;11.65;37.91;100843.53;5079265;27;45474;-75
2022/04/18 05:20:58;;;;;;;;;0.00;0.00;;;;;11.59;37.80;100855.09;5089868;27;45578;-80
2022/04/18 05:23:23;;;;;;;;;3.50;1.00;;;;;11.49;37.87;100843.81;5099473;27;45731;-80
2022/04/18 05:25:48;;;;;;;;;3.00;0.00;;;;;11.48;37.93;100850.00;5097284;27;45386;-80
2022/04/18 05:28:14;;;;;;;;;3.50;1.50;;;;;11.52;38.11;100853.47;5098831;27;45663;-78
2022/04/18 05:30:39;;;;;;;;;1.00;1.00;;;;;11.53;37.59;100856.06;5101929;27;45504;-80
2022/04/18 05:33:06;;;;;;;;;0.00;0.00;;;;;11.67;38.05;100853.16;5100747;27;45480;-80
2022/04/18 05:35:32;;;;;;;;;1.00;1.00;;;;;12.29;36.74;100856.31;5102431;27;45487;-80
2022/04/18 05:37:57;;;;;;;;;0.75;0.75;;;;;12.79;36.35;100860.41;5110321;27;45938;-79
2022/04/18 05:40:23;;;;;;;;;0.75;0.75;;;;;13.56;35.20;100844.31;5119868;27;45538;-80
2022/04/18 05:42:48;;;;;;;;;0.25;0.25;;;;;14.58;34.07;100857.19;5121501;27;45352;-80
2022/04/18 05:45:14;;;;;;;;;0.00;0.00;;;;;14.96;32.99;100852.44;5107459;27;45302;-79
2022/04/18 05:47:39;;;;;;;;;0.75;0.75;;;;;15.81;31.89;100860.97;5104604;27;45326;-80
2022/04/18 05:50:05;;;;;;;;;1.00;1.00;;;;;16.82;30.53;100862.38;5103734;27;45322;-80
2022/04/18 05:52:31;;;;;;;;;4.25;3.50;;;;;17.63;28.55;100850.03;5097746;27;45278;-80
2022/04/18 05:54:57;;;;;;;;;0.00;0.00;;;;;18.39;27.33;100851.91;5098388;27;45506;-80
2022/04/18 05:57:22;;;;;;;;;2.50;1.00;;;;;19.15;26.49;100855.25;5102513;27;45372;-82
2022/04/18 05:59:48;;;;;;;;;4.00;1.00;;;;;20.04;26.20;100862.22;5098860;27;45256;-81
2022/04/18 06:02:15;;;;;;;;;1.50;1.50;;;;;20.72;24.38;100851.25;5095918;27;45414;-77
2022/04/18 06:04:40;;;;;;;;;1.00;1.00;;;;;21.49;24.50;100856.56;5099149;27;45610;-81
2022/04/18 06:07:06;;;;;;;;;0.00;0.00;;;;;22.29;23.99;100851.56;5098480;27;45512;-80
2022/04/18 06:09:31;;;;;;;;;1.00;1.00;;;;;23.07;23.06;100858.13;5102029;27;45419;-80
2022/04/18 06:11:57;;;;;;;;;4.25;2.00;;;;;23.50;21.83;100859.72;5100980;27;45416;-80
2022/04/18 06:14:22;;;;;;;;;0.50;0.50;;;;;23.95;21.30;100858.31;5104146;27;45333;-80
2022/04/18 06:16:48;;;;;;;;;1.00;1.00;;;;;24.20;20.97;100834.94;5106307;27;45482;-80
2022/04/18 06:19:13;;;;;;;;;0.75;0.75;;;;;24.65;20.50;100851.41;5097601;27;45366;-80
2022/04/18 06:21:40;;;;;;;;;1.00;1.00;;;;;25.04;19.93;100851.22;5100985;27;45540;-80
2022/04/18 06:24:05;;;;;;;;;1.00;1.00;;;;;25.43;19.63;100851.88;5097878;27;45376;-80
2022/04/18 06:26:30;;;;;;;;;2.50;2.00;;;;;25.92;19.47;100849.81;5105557;27;46009;-80
2022/04/18 06:28:57;;;;;;;;;0.00;0.00;;;;;26.26;18.91;100846.22;5118430;27;45420;-80
2022/04/18 06:31:23;;;;;;;;;1.00;1.00;;;;;26.70;18.58;100849.81;5118343;27;45459;-81
2022/04/18 06:33:48;;;;;;;;;1.00;1.00;;;;;27.19;18.55;100844.78;5114841;27;45675;-79
2022/04/18 06:36:22;;;;;;;;;0.00;0.00;;;;;27.60;17.38;100849.38;5085059;27;48085;-79
2022/04/18 06:38:48;;;;;;;;;1.25;0.50;;;;;27.79;16.67;100851.31;5076684;28;49339;-79
2022/04/18 06:41:13;;;;;;;;;0.75;0.75;;;;;28.07;17.55;100846.16;5083848;27;45429;-80
2022/04/18 06:43:39;;;;;;;;;1.25;1.25;;;;;28.03;16.43;100841.13;5101834;27;45432;-80
2022/04/18 06:46:04;;;;;;;;;3.00;1.25;;;;;28.28;16.26;100843.34;5103380;27;46248;-80
2022/04/18 06:48:30;;;;;;;;;1.00;1.00;;;;;28.62;16.37;100845.75;5099164;27;45429;-80
2022/04/18 06:50:56;;;;;;;;;1.00;1.00;;;;;28.10;16.73;100854.00;5097697;27;45528;-80
2022/04/18 06:53:21;;;;;;;;;2.00;2.00;;;;;28.09;16.96;100846.88;5097504;27;45403;-81
2022/04/18 06:58:31;;;;;;;;;1.00;1.00;;;;;28.79;16.95;100833.28;5097502;27;45445;-83
2022/04/18 07:00:57;;;;;;;;;0.25;0.25;;;;;28.48;16.25;100833.38;5099282;27;45410;-82
2022/04/18 07:03:23;;;;;;;;;4.50;4.50;;;;;27.69;16.77;100844.97;5096564;27;45542;-81
2022/04/18 07:05:48;;;;;;;;;0.00;0.00;;;;;27.03;17.18;100846.09;5095801;27;48578;-80
2022/04/18 07:08:14;;;;;;;;;1.00;1.00;;;;;27.14;18.65;100845.19;5096292;27;45339;-80
2022/04/18 07:10:39;;;;;;;;;0.75;0.25;;;;;27.79;18.43;100843.16;5081478;27;45522;-80
2022/04/18 07:13:05;;;;;;;;;1.75;1.75;;;;;28.11;18.03;100847.59;5084011;27;45414;-81
2022/04/18 07:15:32;;;;;;;;;0.25;0.25;;;;;28.31;16.88;100844.94;5123004;27;46066;-80
2022/04/18 07:17:58;;;;;;;;;2.25;2.00;;;;;28.26;17.25;100844.50;5093598;27;45396;-77
2022/04/18 07:20:23;;;;;;;;;3.00;2.00;;;;;28.22;17.29;100848.50;5095975;27;45469;-77
2022/04/18 07:22:48;;;;;;;;;3.00;1.25;;;;;28.37;16.59;100847.09;5095692;27;45533;-78
2022/04/18 07:25:14;;;;;;;;;1.00;1.00;;;;;28.57;16.51;100845.25;5096150;27;45517;-76
2022/04/18 07:27:39;;;;;;;;;2.00;2.00;;;;;28.91;16.24;100836.72;5096260;27;45388;-77
2022/04/18 07:30:05;;;;;;;;;3.00;3.00;;;;;29.21;15.95;100837.56;5067360;27;45485;-77
2022/04/18 07:32:31;;;;;;;;;1.00;1.00;;;;;29.64;16.13;100841.63;5103432;27;45651;-78
2022/04/18 07:35:02;;;;;;;;;3.00;3.00;;;;;29.15;16.46;100844.44;5098150;27;46099;-76
2022/04/18 07:37:27;;;;;;;;;1.75;1.75;;;;;29.35;15.89;100842.56;5095682;27;45336;-77
2022/04/18 07:39:52;;;;;;;;;3.00;1.50;;;;;29.40;16.24;100844.84;5096090;27;45336;-76
2022/04/18 07:42:19;;;;;;;;;4.00;4.00;;;;;29.57;15.86;100840.50;5078144;27;45442;-74
2022/04/18 07:44:44;;;;;;;;;1.75;1.75;;;;;29.82;15.51;100849.91;5078686;28;46059;-76
2022/04/18 07:47:10;;;;;;;;;2.25;2.25;;;;;29.34;15.99;100832.69;5077690;27;45347;-77
2022/04/18 07:49:35;;;;;;;;;5.00;3.50;;;;;29.07;16.65;100849.72;5091572;27;45473;-76
2022/04/18 07:52:00;;;;;;;;;3.25;3.25;;;;;28.92;16.80;100843.03;5110151;27;46527;-76
2022/04/18 07:54:26;;;;;;;;;2.75;1.75;;;;;28.66;16.52;100851.75;5117182;27;45537;-76
2022/04/18 07:56:51;;;;;;;;;5.00;5.00;;;;;28.48;16.42;100854.25;5116063;27;45505;-76
2022/04/18 07:59:18;;;;;;;;;2.25;2.25;;;;;28.88;17.00;100845.19;5116332;27;45569;-81
2022/04/18 08:01:43;;;;;;;;;7.50;3.00;;;;;29.52;16.71;100840.09;5115442;27;45542;-77
2022/04/18 08:04:09;;;;;;;;;5.75;5.75;;;;;30.17;16.14;100844.69;5114643;27;45775;-76
2022/04/18 08:06:34;;;;;;;;;2.00;2.00;;;;;30.01;15.91;100831.75;5093624;27;45477;-77
2022/04/18 08:09:00;;;;;;;;;1.00;1.00;;;;;29.68;16.49;100844.91;5094378;27;45404;-81
2022/04/18 08:11:26;;;;;;;;;4.75;4.75;;;;;29.24;17.13;100840.88;5095345;27;45548;-80
2022/04/18 08:13:52;;;;;;;;;2.00;2.00;;;;;28.69;17.32;100846.03;5096574;27;46937;-80
2022/04/18 08:16:18;;;;;;;;;2.50;1.50;;;;;28.31;17.72;100844.94;5095328;27;45467;-79
2022/04/18 08:18:44;;;;;;;;;3.00;3.00;;;;;28.14;17.40;100849.19;5076601;28;45391;-79
2022/04/18 08:21:17;;;;;;;;;1.75;1.75;;;;;27.69;17.26;100858.53;5076675;27;45361;-79
2022/04/18 08:23:43;;;;;;;;;1.25;1.25;;;;;27.28;17.96;100835.84;5075892;27;47174;-77
2022/04/18 08:26:09;;;;;;;;;4.75;3.50;;;;;27.26;17.68;100846.84;5075390;27;45429;-79
2022/04/18 08:28:34;;;;;;;;;4.00;4.00;;;;;27.58;17.84;100834.22;5080364;27;45531;-81
2022/04/18 08:31:01;;;;;;;;;12.25;12.25;;;;;28.33;17.29;100841.09;5091714;27;45504;-73
2022/04/18 08:33:29;;;;;;;;;102.67;93.00;;;;;29.05;17.02;100833.56;5096542;27;45480;-74
2022/04/18 08:35:54;;;;;;;;;1.75;0.00;;;;;29.33;15.93;100838.28;5096043;27;45430;-74
2022/04/18 08:38:19;;;;;;;;;4.25;4.25;;;;;29.14;16.03;100842.72;5095033;27;45678;-74
2022/04/18 08:40:49;;;;;;;;;56.50;50.25;;;;;28.98;17.29;100839.72;5089516;27;45500;-73
2022/04/18 08:43:14;;;;;;;;;103.50;91.50;;;;;28.85;16.77;100835.44;5097721;27;46166;-76
2022/04/18 08:45:40;;;;;;;;;102.00;93.33;;;;;28.48;17.07;100833.38;5094685;27;45477;-74
2022/04/18 08:53:35;;;;;;;;;5.00;3.25;;;;;28.53;16.65;100825.66;5096301;27;45878;-75
2022/04/18 08:56:01;;;;;;;;;2.50;1.25;;;;;28.39;17.76;100834.22;5093647;27;45411;-74
2022/04/18 08:58:27;;;;;;;;;7.00;5.00;;;;;28.19;16.87;100836.88;5093625;27;45479;-74
2022/04/18 09:00:57;;;;;;;;;2.00;2.00;;;;;28.07;18.08;100835.28;5093565;27;45546;-74
2022/04/18 09:03:23;;;;;;;;;5.25;5.25;;;;;27.88;18.22;100837.88;5087079;27;46179;-75
2022/04/18 09:05:48;;;;;;;;;3.50;3.50;;;;;27.84;18.78;100840.88;5093156;27;45391;-75
2022/04/18 09:08:14;;;;;;;;;5.50;4.00;;;;;27.69;17.25;100838.69;5095676;27;46127;-72
2022/04/18 09:10:41;;;;;;;;;3.00;3.00;;;;;27.89;17.54;100842.34;5091032;27;45676;-74
2022/04/18 09:13:12;;;;;;;;;2.75;2.50;;;;;28.22;17.81;100848.50;5092437;27;46604;-74
2022/04/18 09:15:38;;;;;;;;;3.25;2.00;;;;;28.49;17.62;100837.81;5092747;27;45530;-75
2022/04/18 09:18:16;;;;;;;;;9.00;4.00;;;;;28.76;17.94;100841.75;5077612;27;46013;-75
2022/04/18 09:20:46;;;;;;;;;8.00;7.00;;;;;28.61;17.39;100838.56;5090871;27;45635;-78
2022/04/18 09:23:38;;;;;;;;;8.25;7.00;;;;;28.73;18.59;100836.59;5088820;27;47390;-78
2022/04/18 09:26:03;;;;;;;;;6.00;6.00;;;;;28.68;17.28;100834.28;5087285;27;45456;-79
2022/04/18 09:28:31;;;;;;;;;7.00;7.00;;;;;28.78;17.26;100828.00;5093984;27;45419;-79
2022/04/18 09:31:04;;;;;;;;;5.50;4.00;;;;;28.89;17.47;100826.00;5091507;27;45395;-75
2022/04/18 09:33:54;;;;;;;;;3.75;3.00;;;;;29.16;16.99;100832.53;5089621;27;45686;-73
2022/04/18 09:36:21;;;;;;;;;6.50;5.75;;;;;29.38;16.44;100830.50;5086693;27;45496;-75
2022/04/18 09:38:57;;;;;;;;;6.00;5.25;;;;;29.53;15.91;100820.00;5095286;27;45396;-75
2022/04/18 09:41:26;;;;;;;;;8.00;6.50;;;;;29.73;15.58;100823.50;5095565;27;45555;-74
2022/04/18 09:43:54;;;;;;;;;7.25;6.00;;;;;29.68;15.73;100825.84;5085867;27;46092;-73
2022/04/18 09:46:20;;;;;;;;;7.25;6.25;;;;;29.74;16.73;100815.19;5097539;27;45411;-79
2022/04/18 09:48:48;;;;;;;;;6.75;5.00;;;;;29.69;17.35;100819.41;5097954;27;45455;-78
2022/04/18 09:51:23;;;;;;;;;6.75;6.00;;;;;29.40;16.88;100823.06;5096163;27;45392;-75
2022/04/18 09:53:52;;;;;;;;;3.50;3.50;;;;;29.40;17.06;100823.06;5092834;27;46526;-75
2022/04/18 09:56:21;;;;;;;;;3.00;3.00;;;;;29.22;17.38;100812.09;5095062;27;45578;-75
2022/04/18 09:58:47;;;;;;;;;2.25;2.25;;;;;29.10;16.88;100811.34;5090084;27;45385;-77
2022/04/18 10:01:13;;;;;;;;;7.50;6.75;;;;;29.20;16.63;100816.78;5095524;27;45649;-74
2022/04/18 10:03:40;;;;;;;;;7.25;6.50;;;;;29.01;16.75;100823.97;5095708;27;45491;-75
2022/04/18 10:06:07;;;;;;;;;6.00;6.00;;;;;29.22;17.03;100806.66;5094667;27;45787;-75
2022/04/18 10:08:34;;;;;;;;;4.00;4.00;;;;;29.36;17.92;100813.47;5098945;27;45326;-76
2022/04/18 10:11:02;;;;;;;;;6.25;6.00;;;;;29.46;16.37;100808.88;5097262;27;45769;-76
2022/04/18 10:13:30;;;;;;;;;8.00;7.00;;;;;29.40;16.19;100806.75;5096922;27;45530;-77
2022/04/18 10:15:58;;;;;;;;;4.00;4.00;;;;;29.68;16.47;100809.50;5094073;27;45509;-77
2022/04/18 10:18:25;;;;;;;;;7.75;6.00;;;;;29.69;16.28;100801.19;5088556;27;45483;-77
2022/04/18 10:21:06;;;;;;;;;7.00;7.00;;;;;29.73;16.03;100802.59;5102026;27;45694;-76
2022/04/18 10:24:03;;;;;;;;;4.50;4.50;;;;;29.64;16.91;100808.06;5095119;27;45658;-76
2022/04/18 10:26:35;;;;;;;;;7.00;7.00;;;;;29.36;16.96;100811.59;5092109;27;45634;-76
2022/04/18 10:29:06;;;;;;;;;3.00;3.00;;;;;29.03;17.23;100812.94;5096295;27;45547;-74
2022/04/18 10:31:37;;;;;;;;;3.00;3.00;;;;;29.34;17.18;100804.63;5095548;27;45568;-75
2022/04/18 10:34:03;;;;;;;;;4.00;4.00;;;;;29.64;16.10;100805.34;5099439;27;46016;-76
2022/04/18 10:36:33;;;;;;;;;7.00;4.25;;;;;29.92;17.82;100807.13;5095828;27;45550;-74
2022/04/18 10:39:06;;;;;;;;;7.00;6.00;;;;;30.17;16.89;100801.97;5095819;27;45413;-74
2022/04/18 10:41:36;;;;;;;;;3.00;3.00;;;;;30.40;15.88;100801.56;5091633;27;45597;-76
2022/04/18 10:44:12;;;;;;;;;1.25;1.00;;;;;30.38;16.27;100800.81;5097588;27;45330;-77
2022/04/18 10:46:39;;;;;;;;;3.00;3.00;;;;;30.17;16.69;100792.94;5099808;27;45452;-77
2022/04/18 10:49:16;;;;;;;;;2.00;2.00;;;;;30.03;15.69;100786.97;5094416;27;45579;-78
2022/04/18 10:51:43;;;;;;;;;3.75;3.75;;;;;29.69;15.73;100784.00;5088799;27;45542;-76
2022/04/18 10:54:23;;;;;;;;;7.00;7.00;;;;;29.44;16.67;100785.53;5094947;27;45432;-76
2022/04/18 10:57:03;;;;;;;;;4.00;3.75;;;;;29.44;16.58;100786.38;5095083;27;45337;-76
2022/04/18 10:59:30;;;;;;;;;4.50;4.50;;;;;29.25;16.80;100784.59;5096086;27;45390;-75
2022/04/18 11:01:58;;;;;;;;;2.50;2.50;;;;;28.89;16.05;100787.03;5094346;27;45508;-74
2022/04/18 11:04:29;;;;;;;;;2.00;2.00;;;;;28.86;17.97;100788.22;5090074;27;45409;-76
2022/04/18 11:07:05;;;;;;;;;3.50;2.25;;;;;28.93;17.94;100779.47;5092457;27;45398;-75
2022/04/18 11:09:52;;;;;;;;;5.00;5.00;;;;;29.15;16.25;100779.16;5094041;27;45590;-76
2022/04/18 11:12:20;;;;;;;;;3.00;3.00;;;;;29.03;16.84;100773.00;5096667;27;45536;-76
2022/04/18 11:15:07;;;;;;;;;4.00;4.00;;;;;28.89;16.27;100785.22;5093362;27;45571;-75
2022/04/18 11:17:37;;;;;;;;;2.00;2.00;;;;;28.90;16.82;100780.63;5036661;28;45501;-77
2022/04/18 11:20:26;;;;;;;;;2.75;2.75;;;;;29.09;15.81;100771.53;5046879;28;45441;-77
2022/04/18 11:23:16;;;;;;;;;3.50;3.00;;;;;28.99;15.42;100771.56;5044250;28;45496;-76
2022/04/18 11:25:58;;;;;;;;;2.50;2.50;;;;;28.87;15.69;100773.59;5037384;28;47291;-79
2022/04/18 11:28:30;;;;;;;;;3.00;3.00;;;;;29.04;15.40;100769.25;5036974;28;45529;-79
2022/04/18 11:30:56;;;;;;;;;3.00;3.00;;;;;29.23;14.98;100765.69;5045102;28;45576;-80
2022/04/18 11:33:21;;;;;;;;;5.00;3.00;;;;;28.92;15.17;100761.44;5040213;28;45467;-80
2022/04/18 11:35:49;;;;;;;;;1.75;1.75;;;;;29.12;15.17;100759.53;5044018;28;45613;-78
2022/04/18 11:38:14;;;;;;;;;2.00;2.00;;;;;29.31;14.90;100764.09;5041408;28;45456;-79
2022/04/18 11:40:41;;;;;;;;;2.75;1.00;;;;;29.48;15.39;100760.56;5038872;28;45349;-78
2022/04/18 11:43:15;;;;;;;;;3.00;3.00;;;;;29.53;15.67;100763.72;5047478;28;45376;-80